Main page
Satellite images 15-day forecastsClimateMarine weather Cyclones Lightning AirportsFAQ Newsletter About
Weather : Europe Africa North America South America Asia Australia-Oceania Others
Languages Contact

New Delhi, India

Indira Gandhi

latitude: 28-34N, longitude: 077-07E, elevation: 220 m


METAR: VIDP 300830Z 10006KT 4000 HZ SCT035 FEW040CB SCT100 34/26 Q1001 TEMPO 27020KT 1500 TS
short-TAF: VIDP 300300Z 3006/3015 13008KT 4000 HZ SCT030 SCT100 TEMPO 3009/3015 1500 TSRA FEW035CB BKN090
long-TAF: VIDP 300300Z 3006/3112 13008KT 4000 HZ SCT030 SCT100 TEMPO 3009/3015 1500 TSRA FEW035CB BKN090 BECMG 3017/3019 07003KT 2000 BR BECMG 3103/3105 13006KT 3500 HZ TEMPO 3107/3112 1500 SCT030 FEW035CB BKN090

Time: 14:33 (09:03 UTC)

Current weather observation

The report was made 33 minutes ago, at 08:30 UTC  
Wind 06 kt from the East
Temperature 34°C
Humidity 63%
Pressure 1001 hPa
Visibility 4000 m
Scattered clouds at a height of 3500 ft
Few clouds at a height of 4000 ft , Cumulonimbus.
Scattered clouds at a height of 10000 ft
haze

Change units

Forecast

The report was made 4 hours and 3 minutes ago, at 05:00 UTC  
Forecast valid from 30 at 06 UTC to 30 at 15 UTC
Wind 08 kt from the Southeast
Visibility 4000 m
Scattered clouds at a height of 3000 ft
Scattered clouds at a height of 10000 ft
haze
Temporary
from 30 at 09 UTC to 30 at 15 UTC
Visibility 1500 m
Few clouds at a height of 3500 ft , Cumulonimbus.
Broken clouds at a height of 9000 ft
thunderstorm rain

Forecast

The report was made 3 hours and 54 minutes ago, at 05:09 UTC  
Forecast valid from 30 at 06 UTC to 31 at 12 UTC
Wind 08 kt from the Southeast
Visibility 4000 m
Scattered clouds at a height of 3000 ft
Scattered clouds at a height of 10000 ft
haze
Temporary
from 30 at 09 UTC to 30 at 15 UTC
Visibility 1500 m
Few clouds at a height of 3500 ft , Cumulonimbus.
Broken clouds at a height of 9000 ft
thunderstorm rain
Becoming
from 30 at 17 UTC to 30 at 19 UTC
Wind 03 kt from the East/Northeast
Visibility 2000 m
mist
Becoming
from 31 at 03 UTC to 31 at 05 UTC
Wind 06 kt from the Southeast
Visibility 3500 m
haze
Temporary
from 31 at 07 UTC to 31 at 12 UTC
Visibility 1500 m
Scattered clouds at a height of 3000 ft
Few clouds at a height of 3500 ft , Cumulonimbus.
Broken clouds at a height of 9000 ft
The information on this site is subject to a disclaimer
Weather : Europe Africa North America South America Asia Australia-Oceania Others
Satellite images 15-day forecastsClimateMarine weather Cyclones Lightning AirportsFAQ Languages Contact Newsletter About